Time;durP1;ratioP1;P1;durP2;ratioP2;P2;SDS_P1;SDS_P2;PMS_P1;PMS_P2;Temp;Humidity;BMP_temperature;BMP_pressure;BME280_temperature;BME280_humidity;BME280_pressure;Samples;Min_cycle;Max_cycle;Signal;HPM_P1;HPM_P2
2022/07/21 00:01:24;;;;;;;3.47;2.00;;;26.90;56.70;;;;;;4547326;31;20131;-64
2022/07/21 00:03:50;;;;;;;3.45;1.65;;;26.90;56.70;;;;;;4565329;31;20138;-64
2022/07/21 00:06:16;;;;;;;2.97;1.73;;;26.90;56.70;;;;;;4553959;31;20076;-64
2022/07/21 00:08:41;;;;;;;2.75;1.92;;;26.90;56.80;;;;;;4548245;31;20563;-65
2022/07/21 00:11:08;;;;;;;4.43;2.05;;;26.90;56.80;;;;;;4566068;31;20067;-64
2022/07/21 00:13:33;;;;;;;3.47;1.95;;;26.90;56.80;;;;;;4577394;31;20187;-64
2022/07/21 00:15:59;;;;;;;4.25;1.98;;;26.90;56.80;;;;;;4565073;31;20130;-65
2022/07/21 00:18:28;;;;;;;2.38;1.77;;;26.90;56.80;;;;;;4577905;31;20611;-65
2022/07/21 00:20:57;;;;;;;2.58;1.77;;;26.90;56.80;;;;;;4565422;31;20155;-65
2022/07/21 00:23:24;;;;;;;4.18;2.10;;;26.90;56.80;;;;;;4578656;31;20126;-64
2022/07/21 00:29:18;;;;;;;3.72;1.88;;;26.80;56.70;;;;;;5248326;26;20207;-68
2022/07/21 00:31:44;;;;;;;4.03;2.25;;;26.80;56.80;;;;;;4502867;31;20060;-67
2022/07/21 00:34:10;;;;;;;2.72;1.60;;;26.90;56.90;;;;;;4507437;31;20210;-66
2022/07/21 00:36:36;;;;;;;3.50;2.10;;;26.80;56.80;;;;;;4507467;31;20060;-69
2022/07/21 00:39:02;;;;;;;2.90;1.77;;;26.80;56.80;;;;;;4508110;31;20065;-69
2022/07/21 00:41:28;;;;;;;4.10;1.75;;;26.80;56.80;;;;;;4507954;31;20151;-68
2022/07/21 00:43:54;;;;;;;4.47;1.90;;;26.80;56.80;;;;;;4507650;31;20057;-69
2022/07/21 00:46:20;;;;;;;3.67;1.65;;;26.80;56.80;;;;;;4507815;31;20077;-68
2022/07/21 00:48:46;;;;;;;2.85;1.80;;;26.80;56.80;;;;;;4507628;31;20412;-68
2022/07/21 00:51:12;;;;;;;3.72;1.92;;;26.80;56.90;;;;;;4507739;31;20061;-68
2022/07/21 00:53:38;;;;;;;3.10;1.88;;;26.80;56.80;;;;;;4507737;31;20577;-68
2022/07/21 00:56:04;;;;;;;2.38;1.80;;;26.80;56.80;;;;;;4507694;31;20072;-68
2022/07/21 00:58:30;;;;;;;2.63;1.60;;;26.80;56.90;;;;;;4507764;31;20072;-68
2022/07/21 01:00:56;;;;;;;3.00;1.83;;;26.80;56.90;;;;;;4507917;31;20096;-68
2022/07/21 01:03:23;;;;;;;2.20;1.42;;;26.80;56.90;;;;;;4507453;31;20076;-70
2022/07/21 01:05:49;;;;;;;3.33;1.70;;;26.80;56.90;;;;;;4507159;31;20109;-68
2022/07/21 01:08:15;;;;;;;3.47;1.98;;;26.80;56.90;;;;;;4507976;31;20088;-69
2022/07/21 01:10:41;;;;;;;2.40;1.60;;;26.80;56.90;;;;;;4507703;31;20084;-67
2022/07/21 01:13:07;;;;;;;2.22;1.70;;;26.80;57.00;;;;;;4507737;31;20073;-68
2022/07/21 01:15:33;;;;;;;4.80;2.20;;;26.80;57.10;;;;;;4507882;31;20065;-69
2022/07/21 01:18:00;;;;;;;4.22;1.65;;;26.80;57.00;;;;;;4507493;31;20108;-68
2022/07/21 01:20:26;;;;;;;3.70;1.65;;;26.80;57.00;;;;;;4507579;31;20080;-67
2022/07/21 01:22:55;;;;;;;2.80;1.70;;;26.80;57.00;;;;;;4507512;31;20057;-67
2022/07/21 01:25:21;;;;;;;2.53;1.80;;;26.80;57.00;;;;;;4509483;31;20230;-67
2022/07/21 01:27:47;;;;;;;2.88;1.58;;;26.80;57.00;;;;;;4510307;31;20146;-68
2022/07/21 01:30:15;;;;;;;3.70;1.70;;;26.80;57.00;;;;;;4510180;31;20091;-67
2022/07/21 01:32:41;;;;;;;2.53;1.45;;;26.80;57.00;;;;;;4510342;31;20127;-67
2022/07/21 01:35:09;;;;;;;2.42;1.73;;;26.80;57.00;;;;;;4510403;31;20136;-67
2022/07/21 01:37:38;;;;;;;3.05;1.80;;;26.80;57.00;;;;;;4510597;31;20089;-67
2022/07/21 01:42:50;;;;;;;3.47;1.80;;;26.80;57.10;;;;;;4510909;31;20096;-68
2022/07/21 01:45:16;;;;;;;3.13;1.88;;;26.80;57.10;;;;;;4510039;31;20173;-67
2022/07/21 01:47:41;;;;;;;2.85;2.28;;;26.80;57.10;;;;;;4510546;31;20120;-67
2022/07/21 01:50:07;;;;;;;2.95;2.00;;;26.80;57.10;;;;;;4510334;31;20393;-67
2022/07/21 01:52:33;;;;;;;2.67;1.80;;;26.70;57.10;;;;;;4510213;31;20214;-67
2022/07/21 01:54:59;;;;;;;3.83;1.83;;;26.70;57.10;;;;;;4510270;31;20123;-67
2022/07/21 01:57:25;;;;;;;4.90;1.83;;;26.70;57.10;;;;;;4510053;31;20389;-67
2022/07/21 01:59:51;;;;;;;3.22;1.85;;;26.80;57.10;;;;;;4510092;31;20087;-68
2022/07/21 02:02:20;;;;;;;3.65;1.80;;;26.70;57.10;;;;;;4509994;31;20087;-67
2022/07/21 02:04:50;;;;;;;1.80;1.67;;;26.80;57.20;;;;;;4509814;31;20091;-67
2022/07/21 02:07:16;;;;;;;5.97;1.90;;;26.70;57.10;;;;;;4509962;31;20128;-68
2022/07/21 02:09:43;;;;;;;4.15;1.98;;;26.70;57.10;;;;;;4509998;31;20165;-67
2022/07/21 02:12:09;;;;;;;2.72;1.83;;;26.70;57.10;;;;;;4509937;31;20128;-67
2022/07/21 02:14:34;;;;;;;2.83;1.70;;;26.70;57.10;;;;;;4510078;31;20069;-67
2022/07/21 02:17:00;;;;;;;3.17;1.92;;;26.70;57.10;;;;;;4509808;31;20491;-67
2022/07/21 02:19:26;;;;;;;2.58;1.52;;;26.70;57.20;;;;;;4510051;31;20057;-67
2022/07/21 02:21:52;;;;;;;2.88;1.83;;;26.70;57.10;;;;;;4509750;31;20076;-67
2022/07/21 02:24:18;;;;;;;2.53;1.65;;;26.70;57.20;;;;;;4495236;31;20076;-67
2022/07/21 02:26:44;;;;;;;1.67;1.55;;;26.70;57.20;;;;;;4509911;31;20068;-67
2022/07/21 02:29:10;;;;;;;3.55;1.75;;;26.70;57.20;;;;;;4509678;31;20246;-67
2022/07/21 02:31:35;;;;;;;4.68;2.10;;;26.70;58.10;;;;;;4510022;31;20083;-67
2022/07/21 02:34:01;;;;;;;3.67;2.20;;;26.70;57.20;;;;;;4495393;31;20080;-68
2022/07/21 02:36:27;;;;;;;2.45;1.83;;;26.70;57.20;;;;;;4509054;31;20153;-67
2022/07/21 02:38:53;;;;;;;3.33;2.00;;;26.60;57.10;;;;;;4509763;31;20065;-67
2022/07/21 02:41:19;;;;;;;3.63;1.88;;;26.60;57.10;;;;;;4494992;31;20430;-67
2022/07/21 02:43:44;;;;;;;2.85;1.98;;;26.60;57.20;;;;;;4509110;31;20157;-67
2022/07/21 02:46:10;;;;;;;2.67;1.60;;;26.70;57.30;;;;;;4509397;31;20210;-67
2022/07/21 02:48:36;;;;;;;3.45;2.10;;;26.60;57.20;;;;;;4509386;31;20135;-67
2022/07/21 02:51:02;;;;;;;2.55;2.03;;;26.60;57.20;;;;;;4509099;31;20627;-67
2022/07/21 02:53:28;;;;;;;3.42;1.90;;;26.60;57.30;;;;;;4509373;31;20113;-67
2022/07/21 02:55:53;;;;;;;2.78;1.90;;;26.60;57.30;;;;;;4509275;31;20272;-67
2022/07/21 02:58:22;;;;;;;2.80;1.95;;;26.60;57.30;;;;;;4509570;31;20117;-67
2022/07/21 03:00:54;;;;;;;3.53;2.05;;;26.60;57.30;;;;;;4509289;31;20198;-67
2022/07/21 03:03:21;;;;;;;2.13;1.77;;;26.60;57.30;;;;;;4509088;31;20134;-67
2022/07/21 03:05:48;;;;;;;2.95;1.80;;;26.60;57.40;;;;;;4509149;31;20432;-67
2022/07/21 03:08:15;;;;;;;3.53;1.65;;;26.60;57.40;;;;;;4509093;31;20081;-67
2022/07/21 03:10:41;;;;;;;3.85;1.60;;;26.60;57.40;;;;;;4509229;31;20079;-67
2022/07/21 03:13:07;;;;;;;3.25;2.00;;;26.60;57.40;;;;;;4509052;31;20539;-67
2022/07/21 03:15:34;;;;;;;2.63;1.88;;;26.60;57.40;;;;;;4508979;31;20226;-67
2022/07/21 03:18:00;;;;;;;3.47;2.10;;;26.60;57.40;;;;;;4508746;31;20399;-67
2022/07/21 03:20:28;;;;;;;1.92;1.48;;;26.60;57.40;;;;;;4508957;31;20594;-67
2022/07/21 03:22:54;;;;;;;2.72;1.88;;;26.60;57.40;;;;;;4509046;31;20073;-67
2022/07/21 03:25:20;;;;;;;4.25;1.70;;;26.50;57.40;;;;;;4508976;31;20471;-67
2022/07/21 03:27:47;;;;;;;2.97;1.88;;;26.60;57.50;;;;;;4508792;31;20069;-67
2022/07/21 03:30:14;;;;;;;2.22;1.90;;;26.60;57.50;;;;;;4508711;31;20293;-67
2022/07/21 03:32:40;;;;;;;2.70;1.85;;;26.60;57.50;;;;;;4508778;31;20100;-67
2022/07/21 03:35:08;;;;;;;2.38;1.90;;;26.50;57.40;;;;;;4508419;31;20081;-67
2022/07/21 03:37:44;;;;;;;2.42;1.88;;;26.50;57.40;;;;;;4508394;31;20069;-67
2022/07/21 03:40:16;;;;;;;3.00;1.92;;;26.50;57.40;;;;;;4508697;31;20108;-67
2022/07/21 03:42:42;;;;;;;3.92;2.05;;;26.50;57.40;;;;;;4508354;31;20088;-67
2022/07/21 03:45:09;;;;;;;2.63;1.90;;;26.50;57.50;;;;;;4508832;31;20214;-67
2022/07/21 03:47:35;;;;;;;3.40;1.80;;;26.50;57.50;;;;;;4507956;31;20413;-67
2022/07/21 03:50:01;;;;;;;3.67;2.20;;;26.50;57.50;;;;;;4508445;31;20069;-67
2022/07/21 03:52:27;;;;;;;2.42;1.90;;;26.50;57.40;;;;;;4493843;31;20069;-67
2022/07/21 03:55:07;;;;;;;2.97;1.92;;;26.50;57.50;;;;;;4508434;31;20375;-67
2022/07/21 03:57:48;;;;;;;4.28;2.05;;;26.50;57.50;;;;;;4508363;31;20121;-67
2022/07/21 04:00:17;;;;;;;2.72;1.80;;;26.50;57.50;;;;;;4508374;31;20513;-67
2022/07/21 04:02:44;;;;;;;2.88;1.98;;;26.50;57.50;;;;;;4508199;31;20088;-67
2022/07/21 04:05:12;;;;;;;3.42;2.13;;;26.50;57.50;;;;;;4508258;31;20619;-71
2022/07/21 04:07:41;;;;;;;3.00;1.98;;;26.50;57.50;;;;;;4507956;31;20068;-67
2022/07/21 04:10:08;;;;;;;3.00;1.80;;;26.50;57.50;;;;;;4508223;31;20198;-67
2022/07/21 04:12:34;;;;;;;2.65;1.90;;;26.50;57.60;;;;;;4508354;31;20060;-68
2022/07/21 04:14:59;;;;;;;2.83;1.88;;;26.50;57.60;;;;;;4507902;31;20131;-67
2022/07/21 04:17:25;;;;;;;2.47;1.90;;;26.50;57.60;;;;;;4507872;31;20401;-67
2022/07/21 04:19:51;;;;;;;3.38;1.95;;;26.50;57.60;;;;;;4508125;31;20068;-67
2022/07/21 04:22:17;;;;;;;2.97;1.92;;;26.50;57.60;;;;;;4507970;31;20485;-67
2022/07/21 04:24:43;;;;;;;3.35;1.98;;;26.50;57.60;;;;;;4494031;31;20440;-67
2022/07/21 04:27:09;;;;;;;3.90;1.85;;;26.50;57.60;;;;;;4507909;31;20371;-67
2022/07/21 04:29:35;;;;;;;2.22;1.70;;;26.40;57.60;;;;;;4507806;31;20241;-67
2022/07/21 04:32:01;;;;;;;3.40;2.00;;;26.40;57.60;;;;;;4493739;31;20156;-67
2022/07/21 04:34:28;;;;;;;2.58;1.90;;;26.40;57.50;;;;;;4508158;31;20072;-67
2022/07/21 04:36:54;;;;;;;2.90;2.00;;;26.40;57.60;;;;;;4507968;31;20123;-67
2022/07/21 04:39:20;;;;;;;3.55;2.10;;;26.40;57.60;;;;;;4507832;31;20079;-67
2022/07/21 04:41:46;;;;;;;2.00;1.85;;;26.40;57.60;;;;;;4507613;31;20151;-67
2022/07/21 04:44:12;;;;;;;3.75;2.13;;;26.40;57.60;;;;;;4507801;31;20084;-67
2022/07/21 04:46:38;;;;;;;2.03;1.80;;;26.40;57.70;;;;;;4507863;31;20076;-67
2022/07/21 04:49:04;;;;;;;2.28;1.90;;;26.40;57.70;;;;;;4507838;31;20374;-67
2022/07/21 04:51:29;;;;;;;2.75;2.10;;;26.40;57.70;;;;;;4507745;31;20116;-67
2022/07/21 04:53:55;;;;;;;3.15;1.88;;;26.40;57.70;;;;;;4493506;31;20138;-67
2022/07/21 04:56:21;;;;;;;2.63;1.80;;;26.40;57.70;;;;;;4507683;31;20077;-67
2022/07/21 04:58:47;;;;;;;2.25;1.95;;;26.40;57.70;;;;;;4509156;31;20507;-67
2022/07/21 05:01:12;;;;;;;3.03;1.85;;;26.40;57.70;;;;;;4510795;31;20083;-67
2022/07/21 05:03:38;;;;;;;2.00;1.60;;;26.40;57.80;;;;;;4510898;31;20089;-67
2022/07/21 05:06:04;;;;;;;2.72;2.00;;;26.40;57.80;;;;;;4511227;31;20485;-67
2022/07/21 05:08:31;;;;;;;2.67;1.98;;;26.40;57.80;;;;;;4510606;31;20214;-67
2022/07/21 05:10:57;;;;;;;2.13;1.88;;;26.40;57.80;;;;;;4510890;31;20075;-67
2022/07/21 05:13:22;;;;;;;2.13;1.80;;;26.40;57.80;;;;;;4510797;31;20073;-67
2022/07/21 05:15:48;;;;;;;2.20;1.85;;;26.40;57.80;;;;;;4510511;31;20072;-67
2022/07/21 05:18:14;;;;;;;4.18;2.05;;;26.40;57.80;;;;;;4511337;31;20077;-67
2022/07/21 05:20:40;;;;;;;2.80;2.00;;;26.40;57.80;;;;;;4496410;31;20218;-68
2022/07/21 05:23:08;;;;;;;2.33;2.13;;;26.40;57.80;;;;;;4510869;31;20149;-68
2022/07/21 05:25:35;;;;;;;3.42;2.08;;;26.40;57.90;;;;;;4510490;31;20088;-67
2022/07/21 05:28:01;;;;;;;3.92;2.10;;;26.40;57.90;;;;;;4510332;31;20088;-67
2022/07/21 05:30:27;;;;;;;3.05;2.15;;;26.40;57.90;;;;;;4510415;31;20099;-67
2022/07/21 05:32:53;;;;;;;3.22;2.15;;;26.40;57.90;;;;;;4510749;31;20069;-69
2022/07/21 05:35:19;;;;;;;2.67;2.17;;;26.40;58.00;;;;;;4510464;31;20084;-68
2022/07/21 05:37:48;;;;;;;4.68;3.60;;;26.30;57.90;;;;;;4510672;31;20206;-70
2022/07/21 05:40:14;;;;;;;4.72;4.20;;;26.30;58.30;;;;;;4510411;31;20057;-70
2022/07/21 05:42:40;;;;;;;7.82;5.70;;;26.30;58.80;;;;;;4510452;31;20112;-70
2022/07/21 05:45:07;;;;;;;9.63;7.25;;;26.30;59.30;;;;;;4510322;31;20077;-70
2022/07/21 05:47:33;;;;;;;11.00;8.07;;;26.20;59.60;;;;;;4496089;31;20084;-70
2022/07/21 05:49:59;;;;;;;10.02;8.80;;;26.20;60.10;;;;;;4510248;31;20080;-70
2022/07/21 05:52:25;;;;;;;12.18;9.02;;;26.20;60.50;;;;;;4510220;31;20206;-70
2022/07/21 05:54:51;;;;;;;12.38;9.38;;;26.10;60.70;;;;;;4510247;31;20077;-70
2022/07/21 05:57:18;;;;;;;12.48;10.48;;;26.10;60.90;;;;;;4510395;31;20065;-70
2022/07/21 05:59:44;;;;;;;14.25;10.95;;;26.10;61.30;;;;;;4510116;31;20095;-70
2022/07/21 06:02:10;;;;;;;14.23;10.45;;;26.00;61.50;;;;;;4510355;31;20126;-70
2022/07/21 06:04:36;;;;;;;11.90;10.02;;;26.00;61.60;;;;;;4510035;31;20069;-70
2022/07/21 06:07:02;;;;;;;12.95;10.68;;;26.00;61.80;;;;;;4510014;31;20065;-71
2022/07/21 06:09:28;;;;;;;15.15;11.60;;;26.00;62.00;;;;;;4509495;31;20090;-70
2022/07/21 06:11:54;;;;;;;12.70;10.90;;;26.00;62.30;;;;;;4509976;31;20069;-70
2022/07/21 06:14:20;;;;;;;12.90;10.20;;;26.00;62.50;;;;;;4509901;31;20135;-70
2022/07/21 06:16:46;;;;;;;13.85;10.85;;;26.00;62.60;;;;;;4509852;31;20398;-71
2022/07/21 06:19:12;;;;;;;12.48;10.95;;;25.90;62.60;;;;;;4509801;31;20087;-70
2022/07/21 06:21:38;;;;;;;11.35;10.13;;;25.90;62.60;;;;;;4495557;31;20378;-70
2022/07/21 06:24:04;;;;;;;15.10;10.13;;;25.90;62.80;;;;;;4495366;31;20075;-71
2022/07/21 06:26:30;;;;;;;14.50;10.38;;;25.90;62.90;;;;;;4509367;31;20442;-71
2022/07/21 06:28:55;;;;;;;12.73;10.65;;;25.90;63.10;;;;;;4509527;31;20104;-70
2022/07/21 06:31:21;;;;;;;11.07;9.70;;;25.90;63.20;;;;;;4509427;31;20174;-70
2022/07/21 06:33:47;;;;;;;14.02;9.98;;;25.90;63.20;;;;;;4509610;31;20052;-70
2022/07/21 06:36:13;;;;;;;12.90;9.75;;;25.90;63.20;;;;;;4509582;31;20215;-70
2022/07/21 06:38:39;;;;;;;10.05;8.80;;;25.90;63.30;;;;;;4509282;31;20128;-70
2022/07/21 06:41:06;;;;;;;11.38;9.52;;;25.90;63.30;;;;;;4509439;31;20123;-70
2022/07/21 06:43:32;;;;;;;10.07;8.55;;;25.80;63.30;;;;;;4509350;31;20199;-70
2022/07/21 06:45:58;;;;;;;11.40;8.55;;;25.80;63.30;;;;;;4495000;31;20153;-70
2022/07/21 06:48:24;;;;;;;10.63;8.60;;;25.80;63.20;;;;;;4509389;31;20116;-71
2022/07/21 06:50:51;;;;;;;10.43;8.40;;;25.80;63.30;;;;;;4509337;31;20112;-70
2022/07/21 06:53:17;;;;;;;11.52;8.52;;;25.80;63.30;;;;;;4509362;31;20077;-71
2022/07/21 06:55:43;;;;;;;11.55;8.00;;;25.80;63.40;;;;;;4509499;31;20084;-71
2022/07/21 06:58:15;;;;;;;11.15;8.20;;;25.80;63.40;;;;;;4509280;31;20076;-70
2022/07/21 07:00:42;;;;;;;10.70;9.57;;;25.80;63.30;;;;;;4494651;31;20095;-70
2022/07/21 07:03:08;;;;;;;9.73;8.43;;;25.80;63.30;;;;;;4509109;31;20210;-70
2022/07/21 07:05:34;;;;;;;10.40;9.15;;;25.80;63.20;;;;;;4509391;31;20177;-70
2022/07/21 07:08:00;;;;;;;13.18;9.50;;;25.80;63.20;;;;;;4509427;31;20135;-70
2022/07/21 07:10:27;;;;;;;9.93;8.93;;;25.80;63.10;;;;;;4509090;31;20441;-70
2022/07/21 07:12:54;;;;;;;12.65;9.07;;;25.70;63.10;;;;;;4508804;31;20087;-70
2022/07/21 07:15:22;;;;;;;9.50;8.50;;;25.70;63.10;;;;;;4509346;31;20670;-70
2022/07/21 07:17:48;;;;;;;10.55;8.55;;;25.70;63.20;;;;;;4508936;31;20288;-70
2022/07/21 07:20:14;;;;;;;9.07;8.18;;;25.70;63.20;;;;;;4508735;31;20132;-70
2022/07/21 07:22:40;;;;;;;9.38;8.43;;;25.70;63.20;;;;;;4507669;31;20116;-70
2022/07/21 07:25:07;;;;;;;10.07;9.02;;;25.70;63.20;;;;;;4509091;31;20075;-70
2022/07/21 07:27:32;;;;;;;10.18;9.18;;;25.70;63.20;;;;;;4508645;31;20073;-70
2022/07/21 07:29:58;;;;;;;9.38;8.45;;;25.60;63.10;;;;;;4508530;31;20281;-70
2022/07/21 07:32:24;;;;;;;13.70;9.10;;;25.60;63.20;;;;;;4508448;31;20597;-70
2022/07/21 07:34:50;;;;;;;10.27;9.18;;;25.60;63.20;;;;;;4508439;31;20115;-70
2022/07/21 07:37:16;;;;;;;13.30;9.25;;;25.60;63.30;;;;;;4508682;31;20089;-70
2022/07/21 07:39:42;;;;;;;14.55;10.23;;;25.60;63.30;;;;;;4508605;31;20084;-67
2022/07/21 07:42:08;;;;;;;16.38;10.20;;;25.60;63.50;;;;;;4508549;31;20104;-68
2022/07/21 07:44:33;;;;;;;11.15;9.68;;;25.60;63.50;;;;;;4508528;31;20202;-68
2022/07/21 07:47:03;;;;;;;12.90;10.25;;;25.60;63.60;;;;;;4508488;31;20069;-68
2022/07/21 07:49:30;;;;;;;15.50;9.85;;;25.60;63.50;;;;;;4508227;31;20076;-69
2022/07/21 07:51:57;;;;;;;12.48;10.10;;;25.60;63.60;;;;;;4494275;31;20072;-66
2022/07/21 07:54:23;;;;;;;12.55;10.43;;;25.60;63.60;;;;;;4508406;31;20397;-66
2022/07/21 07:56:49;;;;;;;15.20;9.63;;;25.60;63.60;;;;;;4508211;31;20091;-66
2022/07/21 07:59:15;;;;;;;13.07;10.55;;;25.60;63.70;;;;;;4508385;31;20219;-67
2022/07/21 08:01:41;;;;;;;11.00;9.90;;;25.60;63.60;;;;;;4494017;31;20065;-66
2022/07/21 08:04:07;;;;;;;13.05;10.07;;;25.60;63.70;;;;;;4508459;31;20092;-66
2022/07/21 08:06:33;;;;;;;12.82;9.95;;;25.60;63.70;;;;;;4508208;31;20190;-66
2022/07/21 08:08:59;;;;;;;12.38;9.88;;;25.60;63.70;;;;;;4493806;31;20173;-66
2022/07/21 08:11:26;;;;;;;12.02;9.63;;;25.60;63.90;;;;;;4508155;31;20089;-66
2022/07/21 08:13:52;;;;;;;13.27;11.00;;;25.60;64.00;;;;;;4508065;31;20124;-69
2022/07/21 08:16:18;;;;;;;14.23;10.27;;;25.60;64.10;;;;;;4507977;31;20206;-66
2022/07/21 08:18:44;;;;;;;12.55;10.48;;;25.60;64.30;;;;;;4508111;31;20056;-66
2022/07/21 08:21:10;;;;;;;12.48;10.73;;;25.60;64.40;;;;;;4508006;31;20152;-69
2022/07/21 08:23:37;;;;;;;12.88;10.90;;;25.60;64.40;;;;;;4507983;31;20209;-68
2022/07/21 08:26:04;;;;;;;16.80;11.48;;;25.60;64.40;;;;;;4508002;31;20076;-69
2022/07/21 08:28:30;;;;;;;12.25;10.98;;;25.60;64.30;;;;;;4508033;31;20112;-69
2022/07/21 08:30:56;;;;;;;12.70;11.00;;;25.60;65.10;;;;;;4507982;31;20417;-69
2022/07/21 08:33:22;;;;;;;16.02;11.55;;;25.60;64.30;;;;;;4507402;31;20072;-69
2022/07/21 08:35:48;;;;;;;13.75;11.20;;;25.60;64.30;;;;;;4507566;31;20083;-69
2022/07/21 08:38:14;;;;;;;14.38;12.68;;;25.60;64.20;;;;;;4507875;31;20501;-69
2022/07/21 08:40:42;;;;;;;14.90;12.27;;;25.60;64.30;;;;;;4507839;31;20072;-69
2022/07/21 08:43:09;;;;;;;17.90;12.35;;;25.60;64.30;;;;;;4507772;31;20387;-69
2022/07/21 08:45:37;;;;;;;14.25;12.23;;;25.50;64.20;;;;;;4493576;31;20104;-68
2022/07/21 08:48:04;;;;;;;14.05;11.57;;;25.60;64.30;;;;;;4507774;31;20085;-69
2022/07/21 08:50:36;;;;;;;13.70;11.77;;;25.60;65.20;;;;;;4493281;31;20218;-69
2022/07/21 08:53:02;;;;;;;13.93;11.90;;;25.60;64.40;;;;;;4507825;31;20084;-68
2022/07/21 08:55:30;;;;;;;13.75;12.27;;;25.50;64.30;;;;;;4507701;31;20087;-69
2022/07/21 08:57:56;;;;;;;14.63;11.27;;;25.60;64.30;;;;;;4507690;31;20215;-69
2022/07/21 09:00:22;;;;;;;17.13;11.75;;;25.60;64.30;;;;;;4507434;31;20146;-69
2022/07/21 09:02:48;;;;;;;15.02;12.98;;;25.60;64.40;;;;;;4493641;31;20076;-69
2022/07/21 09:05:14;;;;;;;12.98;11.43;;;25.60;64.40;;;;;;4507639;31;20409;-69
2022/07/21 09:08:07;;;;;;;13.43;11.95;;;25.60;64.50;;;;;;4493403;31;20123;-67
2022/07/21 09:10:34;;;;;;;12.85;11.50;;;25.60;64.50;;;;;;4504810;31;20093;-67
2022/07/21 09:13:06;;;;;;;13.20;11.45;;;25.60;64.70;;;;;;4507881;31;20120;-68
2022/07/21 09:15:33;;;;;;;14.55;12.00;;;25.60;64.60;;;;;;4507691;31;20210;-68
2022/07/21 09:18:17;;;;;;;13.60;11.02;;;25.50;64.60;;;;;;4507360;31;20614;-68
2022/07/21 09:20:48;;;;;;;13.18;11.80;;;25.60;64.70;;;;;;4493375;31;20065;-68
2022/07/21 09:23:16;;;;;;;16.42;12.90;;;25.60;64.70;;;;;;4507205;31;20158;-68
2022/07/21 09:25:49;;;;;;;16.35;12.95;;;25.60;64.80;;;;;;4507153;31;20083;-68
2022/07/21 09:28:23;;;;;;;14.82;13.02;;;25.60;64.70;;;;;;4507433;31;20073;-68
2022/07/21 09:30:50;;;;;;;13.52;11.68;;;25.60;64.80;;;;;;4507420;31;20111;-69
2022/07/21 09:33:42;;;;;;;12.75;11.45;;;25.60;64.70;;;;;;4507424;31;20099;-68
2022/07/21 09:36:11;;;;;;;14.13;12.60;;;25.60;64.50;;;;;;4499891;31;20171;-70
2022/07/21 09:38:54;;;;;;;13.95;12.15;;;25.50;64.60;;;;;;4507183;31;20092;-70
2022/07/21 09:41:23;;;;;;;15.65;13.27;;;25.50;64.50;;;;;;4507761;31;20254;-70
2022/07/21 09:43:51;;;;;;;15.45;13.82;;;25.60;64.40;;;;;;4507283;31;20130;-69
2022/07/21 09:46:21;;;;;;;14.48;12.95;;;25.50;64.20;;;;;;4509855;31;20093;-70
2022/07/21 09:48:51;;;;;;;15.43;13.60;;;25.50;64.10;;;;;;4510466;31;20462;-70
2022/07/21 09:51:31;;;;;;;17.80;14.00;;;25.50;64.10;;;;;;4510274;31;20216;-69
2022/07/21 09:54:07;;;;;;;17.33;15.52;;;25.50;64.10;;;;;;4510881;31;20578;-71
2022/07/21 09:56:38;;;;;;;17.25;15.13;;;25.50;64.00;;;;;;4510262;31;20088;-70
2022/07/21 09:59:06;;;;;;;16.15;14.45;;;25.50;63.90;;;;;;4510245;31;20088;-69
2022/07/21 10:01:32;;;;;;;15.70;14.13;;;25.50;63.80;;;;;;4510123;31;20091;-69
2022/07/21 10:03:59;;;;;;;18.42;14.27;;;25.50;63.80;;;;;;4510067;31;20073;-70
2022/07/21 10:06:45;;;;;;;17.38;15.57;;;25.50;63.80;;;;;;4510071;31;20433;-70
2022/07/21 10:09:11;;;;;;;21.67;17.48;;;25.50;63.80;;;;;;4510170;31;20073;-70
2022/07/21 10:11:39;;;;;;;21.08;17.17;;;25.50;63.80;;;;;;4509684;31;20520;-70
2022/07/21 10:14:11;;;;;;;17.55;15.65;;;25.40;63.70;;;;;;4509650;31;20218;-70
2022/07/21 10:16:38;;;;;;;20.73;17.25;;;25.50;63.90;;;;;;4510038;31;20080;-70
2022/07/21 10:19:08;;;;;;;20.33;17.65;;;25.50;64.80;;;;;;4510149;31;20061;-70
2022/07/21 10:22:04;;;;;;;21.05;17.17;;;25.50;63.90;;;;;;4509620;31;20072;-68
2022/07/21 10:24:31;;;;;;;22.25;16.85;;;25.50;64.00;;;;;;4509855;31;20084;-67
2022/07/21 10:27:09;;;;;;;19.02;17.02;;;25.40;64.00;;;;;;4509405;31;20130;-69
2022/07/21 10:30:03;;;;;;;22.85;19.10;;;25.50;64.10;;;;;;4509357;31;20393;-67
2022/07/21 10:32:34;;;;;;;19.45;17.25;;;25.50;64.10;;;;;;4503571;31;20108;-67
2022/07/21 10:35:23;;;;;;;21.80;18.73;;;25.40;64.00;;;;;;4509856;31;20461;-66
2022/07/21 10:37:49;;;;;;;24.35;20.40;;;25.50;64.20;;;;;;4509462;31;20096;-67
2022/07/21 10:40:21;;;;;;;23.65;19.73;;;25.50;64.20;;;;;;4509561;31;20203;-66
2022/07/21 10:43:07;;;;;;;22.15;19.13;;;25.50;64.30;;;;;;4509474;31;20089;-66
2022/07/21 10:45:42;;;;;;;26.58;21.42;;;25.50;64.50;;;;;;4509365;31;20084;-66
2022/07/21 10:48:37;;;;;;;22.30;19.92;;;25.50;64.60;;;;;;4509508;31;20414;-66
2022/07/21 10:51:11;;;;;;;26.27;20.88;;;25.50;64.60;;;;;;4509260;31;20077;-66
2022/07/21 10:53:38;;;;;;;22.65;20.10;;;25.50;64.70;;;;;;4508985;31;20077;-66
2022/07/21 10:56:05;;;;;;;22.45;19.67;;;25.50;64.70;;;;;;4509087;31;20077;-67
2022/07/21 10:58:41;;;;;;;22.45;20.05;;;25.50;64.80;;;;;;4509242;31;20112;-66
2022/07/21 11:01:19;;;;;;;26.13;19.77;;;25.50;64.90;;;;;;4509588;31;20165;-66
2022/07/21 11:04:05;;;;;;;23.05;20.55;;;25.50;65.00;;;;;;4509279;31;20085;-65
2022/07/21 11:06:32;;;;;;;26.23;22.83;;;25.50;65.00;;;;;;4509509;31;20544;-66
2022/07/21 11:09:04;;;;;;;23.48;21.00;;;25.60;65.20;;;;;;4509378;31;20202;-66
2022/07/21 11:11:33;;;;;;;21.73;19.35;;;25.60;65.20;;;;;;4509482;31;20509;-66
2022/07/21 11:14:20;;;;;;;22.80;20.33;;;25.60;65.10;;;;;;4509035;31;20198;-66
2022/07/21 11:16:52;;;;;;;22.30;20.00;;;25.60;65.00;;;;;;4509352;31;20138;-66
2022/07/21 11:19:30;;;;;;;23.88;19.88;;;25.60;65.10;;;;;;4509363;31;20383;-67
2022/07/21 11:21:58;;;;;;;23.40;20.85;;;25.60;65.20;;;;;;4508918;31;20084;-66
2022/07/21 11:24:26;;;;;;;22.42;19.90;;;25.60;65.30;;;;;;4508795;31;20505;-67
2022/07/21 11:27:05;;;;;;;23.67;21.00;;;25.60;65.40;;;;;;4508789;31;20222;-66
2022/07/21 11:29:33;;;;;;;25.08;19.83;;;25.50;65.20;;;;;;4508701;31;20167;-66
2022/07/21 11:32:01;;;;;;;20.88;18.67;;;25.60;65.40;;;;;;4508793;31;20069;-67
2022/07/21 11:34:48;;;;;;;18.42;16.73;;;25.60;65.20;;;;;;4508696;31;20417;-66
2022/07/21 11:37:17;;;;;;;23.23;18.60;;;25.60;65.10;;;;;;4498405;31;20092;-66
2022/07/21 11:39:44;;;;;;;20.25;18.15;;;25.50;65.20;;;;;;4508628;31;20088;-66
2022/07/21 11:42:15;;;;;;;20.20;17.45;;;25.60;65.30;;;;;;4508533;31;20241;-66
2022/07/21 11:44:42;;;;;;;20.88;17.83;;;25.60;65.30;;;;;;4508563;31;20456;-67
2022/07/21 11:47:11;;;;;;;17.70;16.00;;;25.50;65.20;;;;;;4508235;31;20116;-66
2022/07/21 11:49:37;;;;;;;18.05;16.25;;;25.50;65.30;;;;;;4508542;31;20081;-66
2022/07/21 11:52:06;;;;;;;17.30;15.02;;;25.50;65.30;;;;;;4508408;31;20057;-67
2022/07/21 11:54:53;;;;;;;17.48;15.73;;;25.50;65.30;;;;;;4508378;31;20093;-66
2022/07/21 11:57:20;;;;;;;17.20;15.32;;;25.50;65.20;;;;;;4508570;31;20494;-66
2022/07/21 11:59:48;;;;;;;15.32;13.73;;;25.50;65.20;;;;;;4508115;31;20074;-66
2022/07/21 12:02:15;;;;;;;17.10;14.18;;;25.50;65.20;;;;;;4508285;31;20413;-66
2022/07/21 12:04:45;;;;;;;16.65;14.18;;;25.50;65.20;;;;;;4508186;31;20158;-67
2022/07/21 12:07:27;;;;;;;16.13;13.65;;;25.50;65.20;;;;;;4508365;31;20088;-67
2022/07/21 12:09:56;;;;;;;15.68;12.60;;;25.50;65.20;;;;;;4507920;31;20073;-67
2022/07/21 12:12:37;;;;;;;15.07;11.73;;;25.50;65.10;;;;;;4507939;31;20512;-67
2022/07/21 12:15:22;;;;;;;14.30;11.95;;;25.50;64.90;;;;;;4508287;31;20203;-66
2022/07/21 12:17:53;;;;;;;11.75;10.50;;;25.50;65.00;;;;;;4508221;31;20472;-67
2022/07/21 12:20:31;;;;;;;13.95;12.10;;;25.50;65.00;;;;;;4508274;31;20091;-66
2022/07/21 12:22:59;;;;;;;13.43;12.05;;;25.50;65.10;;;;;;4508345;31;20084;-66
2022/07/21 12:25:38;;;;;;;14.00;12.13;;;25.50;65.10;;;;;;4507751;31;20073;-67
2022/07/21 12:28:07;;;;;;;16.05;12.50;;;25.50;65.00;;;;;;4507951;31;20064;-66
2022/07/21 12:30:39;;;;;;;15.57;11.75;;;25.50;65.20;;;;;;4507490;31;20081;-66
2022/07/21 12:33:14;;;;;;;14.38;12.73;;;25.60;65.30;;;;;;4507695;31;20084;-67
2022/07/21 12:35:42;;;;;;;14.00;11.63;;;25.60;65.30;;;;;;4508223;31;20096;-66
2022/07/21 12:38:16;;;;;;;11.48;10.27;;;25.50;65.10;;;;;;4508114;31;20586;-66
2022/07/21 12:40:44;;;;;;;11.45;10.25;;;25.60;65.10;;;;;;4507845;31;20073;-67
2022/07/21 12:43:18;;;;;;;9.07;8.18;;;25.60;65.20;;;;;;4493185;31;20115;-66
2022/07/21 12:45:53;;;;;;;10.25;7.88;;;25.50;66.10;;;;;;4493316;31;20083;-66
2022/07/21 12:48:31;;;;;;;10.05;7.65;;;25.50;65.20;;;;;;4507830;31;20161;-66
2022/07/21 12:51:09;;;;;;;6.50;5.72;;;25.50;65.20;;;;;;4507793;31;20060;-67